Time;durP1;ratioP1;P1;durP2;ratioP2;P2;SDS_P1;SDS_P2;PMS_P1;PMS_P2;Temp;Humidity;BMP_temperature;BMP_pressure;BME280_temperature;BME280_humidity;BME280_pressure;Samples;Min_cycle;Max_cycle;Signal;HPM_P1;HPM_P2
2023/04/19 00:01:25;;;;;;;9.73;7.25;;;12.10;99.90;;;;;;6140160;23;20003;-91
2023/04/19 00:03:57;;;;;;;11.05;7.65;;;12.10;99.90;;;;;;6151009;23;20032;-90
2023/04/19 00:06:33;;;;;;;10.30;7.32;;;12.10;99.90;;;;;;6173047;23;20006;-91
2023/04/19 00:09:22;;;;;;;12.13;7.88;;;12.00;99.90;;;;;;6136453;23;20010;-91
2023/04/19 00:12:01;;;;;;;11.07;8.02;;;12.00;99.90;;;;;;6158985;23;20084;-92
2023/04/19 00:14:35;;;;;;;10.88;8.15;;;12.00;99.90;;;;;;6110269;23;20014;-92
2023/04/19 00:17:04;;;;;;;13.93;7.82;;;12.00;99.90;;;;;;6133292;23;20005;-93
2023/04/19 00:19:44;;;;;;;11.02;7.97;;;12.00;99.90;;;;;;6133254;23;20002;-92
2023/04/19 00:22:23;;;;;;;10.77;8.23;;;12.00;99.90;;;;;;6110106;23;20012;-92
2023/04/19 00:24:51;;;;;;;10.63;8.02;;;12.00;99.90;;;;;;6108234;23;20017;-91
2023/04/19 00:27:22;;;;;;;10.98;7.55;;;12.00;99.90;;;;;;6132392;23;20017;-92
2023/04/19 00:30:20;;;;;;;12.38;8.05;;;12.10;99.90;;;;;;6134368;23;20025;-91
2023/04/19 00:32:49;;;;;;;10.75;7.65;;;12.00;99.90;;;;;;6118726;23;20076;-93
2023/04/19 00:35:26;;;;;;;12.15;8.57;;;12.00;99.90;;;;;;6134318;23;20016;-92
2023/04/19 00:37:54;;;;;;;12.88;8.73;;;12.00;99.90;;;;;;6133212;23;20005;-93
2023/04/19 00:41:15;;;;;;;12.18;8.40;;;12.00;99.90;;;;;;6132748;23;20013;-91
2023/04/19 00:43:25;;;;;;;11.85;8.25;;;12.00;99.90;;;;;;6150264;23;20364;-92
2023/04/19 00:45:53;;;;;;;11.70;8.50;;;12.00;99.90;;;;;;6132836;23;20041;-92
2023/04/19 00:48:37;;;;;;;15.07;8.70;;;12.00;99.90;;;;;;6157462;23;20013;-93
2023/04/19 00:51:06;;;;;;;12.00;8.63;;;12.00;99.90;;;;;;6132928;23;20037;-90
2023/04/19 00:53:42;;;;;;;12.02;8.88;;;12.00;99.90;;;;;;6106080;23;20104;-93
2023/04/19 00:56:36;;;;;;;12.20;8.25;;;12.00;99.90;;;;;;6132536;23;20008;-92
2023/04/19 00:59:51;;;;;;;10.93;8.05;;;11.90;99.90;;;;;;6136952;23;20431;-92
2023/04/19 01:03:00;;;;;;;15.00;9.20;;;11.90;99.90;;;;;;6135094;23;20001;-90
2023/04/19 01:05:21;;;;;;;13.30;8.90;;;11.80;99.90;;;;;;6152265;23;20014;-92
2023/04/19 01:08:12;;;;;;;11.73;8.90;;;11.80;99.90;;;;;;6109664;23;20032;-91
2023/04/19 01:10:44;;;;;;;13.23;9.45;;;11.80;99.90;;;;;;6110212;23;20001;-92
2023/04/19 01:13:31;;;;;;;;;;;;;;;;;;;;;
2023/04/19 01:16:33;;;;;;;;;;;;;;;;;;;;;
2023/04/19 01:19:37;;;;;;;;;;;;;;;;;;;;;
2023/04/19 01:22:40;;;;;;;;;;;;;;;;;;;;;
2023/04/19 01:25:56;;;;;;;13.93;9.32;;;11.70;99.90;;;;;;6154891;23;20105;-93
2023/04/19 01:28:51;;;;;;;14.50;9.25;;;11.60;99.90;;;;;;6131575;23;20348;-92
2023/04/19 01:31:22;;;;;;;12.45;8.82;;;11.60;99.90;;;;;;6157273;23;20032;-92
2023/04/19 01:34:43;;;;;;;;;;;;;;;;;;;;;
2023/04/19 01:37:44;;;;;;;13.60;9.10;;;11.60;99.90;;;;;;6158790;23;20094;-93
2023/04/19 01:40:45;;;;;;;13.43;8.93;;;11.60;99.90;;;;;;6114798;23;20017;-92
2023/04/19 01:44:03;;;;;;;12.55;8.45;;;11.60;99.90;;;;;;6133358;23;20006;-93
2023/04/19 01:52:30;;;;;;;12.18;8.45;;;11.50;99.90;;;;;;6153188;23;20005;-93
2023/04/19 01:55:16;;;;;;;;;;;;;;;;;;;;;
2023/04/19 01:57:53;;;;;;;11.65;8.63;;;11.50;99.90;;;;;;6160343;23;19997;-93
2023/04/19 02:00:47;;;;;;;11.88;8.55;;;11.50;99.90;;;;;;6134910;23;19990;-93
2023/04/19 02:03:20;;;;;;;;;;;;;;;;;;;;;
2023/04/19 02:07:04;;;;;;;;;;;;;;;;;;;;;
2023/04/19 02:09:31;;;;;;;;;;;;;;;;;;;;;
2023/04/19 02:12:27;;;;;;;;;;;;;;;;;;;;;
2023/04/19 02:15:16;;;;;;;13.02;9.40;;;11.40;99.90;;;;;;6137846;23;20081;-92
2023/04/19 02:18:03;;;;;;;12.73;8.77;;;11.40;99.90;;;;;;6123881;23;20009;-95
2023/04/19 02:20:38;;;;;;;10.32;8.35;;;11.30;99.90;;;;;;6111935;23;20106;-93
2023/04/19 02:23:46;;;;;;;14.05;8.98;;;11.30;99.90;;;;;;6159189;23;20077;-93
2023/04/19 02:26:22;;;;;;;;;;;;;;;;;;;;;
2023/04/19 02:28:51;;;;;;;12.38;8.57;;;11.30;99.90;;;;;;6173675;23;19986;-91
2023/04/19 02:31:24;;;;;;;14.70;9.52;;;11.30;99.90;;;;;;6151002;23;20057;-90
2023/04/19 02:33:59;;;;;;;12.55;8.82;;;11.30;99.90;;;;;;6146059;23;20006;-92
2023/04/19 02:36:35;;;;;;;12.35;8.85;;;11.20;99.90;;;;;;6136633;23;20006;-92
2023/04/19 02:39:11;;;;;;;12.77;9.18;;;11.20;99.90;;;;;;6134346;23;19998;-92
2023/04/19 02:41:47;;;;;;;13.90;9.52;;;11.20;99.90;;;;;;6113021;23;20029;-92
2023/04/19 02:44:16;;;;;;;11.52;9.02;;;11.20;99.90;;;;;;6134631;23;20014;-93
2023/04/19 02:47:20;;;;;;;11.98;8.43;;;11.20;99.90;;;;;;6107868;23;20449;-92
2023/04/19 02:50:28;;;;;;;13.30;8.70;;;11.20;99.90;;;;;;6137519;23;20018;-93
2023/04/19 02:53:17;;;;;;;;;;;;;;;;;;;;;
2023/04/19 02:55:59;;;;;;;12.52;8.30;;;11.10;99.90;;;;;;6159936;23;20084;-92
2023/04/19 02:58:54;;;;;;;11.50;8.23;;;11.20;99.90;;;;;;6109844;23;20015;-93
2023/04/19 03:01:40;;;;;;;12.07;7.95;;;11.20;99.90;;;;;;6159378;23;20008;-92
2023/04/19 03:04:30;;;;;;;13.13;8.10;;;11.10;99.90;;;;;;6133426;23;20017;-93
2023/04/19 03:07:14;;;;;;;10.63;7.55;;;11.20;99.90;;;;;;6133890;23;20005;-93
2023/04/19 03:10:13;;;;;;;10.95;7.60;;;11.20;99.90;;;;;;6134216;23;19998;-91
2023/04/19 03:12:44;;;;;;;10.82;7.60;;;11.20;99.90;;;;;;6162066;23;20324;-92
2023/04/19 03:15:46;;;;;;;;;;;;;;;;;;;;;
2023/04/19 03:18:17;;;;;;;15.32;7.60;;;11.20;99.90;;;;;;6159623;23;20507;-93
2023/04/19 03:21:07;;;;;;;;;;;;;;;;;;;;;
2023/04/19 03:24:03;;;;;;;10.18;7.30;;;11.20;99.90;;;;;;6114453;23;20076;-92
2023/04/19 03:26:35;;;;;;;11.15;6.97;;;11.20;99.90;;;;;;6106964;23;20014;-93
2023/04/19 03:29:14;;;;;;;9.82;6.97;;;11.20;99.90;;;;;;6132860;23;20027;-92
2023/04/19 03:31:50;;;;;;;12.15;6.85;;;11.20;99.90;;;;;;6110142;23;20076;-92
2023/04/19 03:34:26;;;;;;;10.60;6.90;;;11.20;99.90;;;;;;6133865;23;20159;-93
2023/04/19 03:36:58;;;;;;;10.95;7.00;;;11.20;99.90;;;;;;6111383;23;20243;-94
2023/04/19 03:39:31;;;;;;;11.43;7.22;;;11.20;99.90;;;;;;6136285;23;20001;-92
2023/04/19 03:42:10;;;;;;;;;;;;;;;;;;;;;
2023/04/19 03:44:46;;;;;;;;;;;;;;;;;;;;;
2023/04/19 03:47:17;;;;;;;8.48;6.55;;;11.20;99.90;;;;;;6140777;23;20040;-92
2023/04/19 03:49:45;;;;;;;;;;;11.20;99.90;;;;;;6134832;23;20103;-93
2023/04/19 03:52:27;;;;;;;9.63;6.03;;;11.20;99.90;;;;;;6160437;23;19904;-91
2023/04/19 03:55:26;;;;;;;;;;;11.10;99.90;;;;;;6090369;23;20111;-92
2023/04/19 03:57:55;;;;;;;10.57;5.90;;;11.10;99.90;;;;;;6138723;23;19904;-91
2023/04/19 04:00:31;;;;;;;11.23;6.25;;;11.10;99.90;;;;;;6108787;23;20009;-92
2023/04/19 04:03:06;;;;;;;11.63;6.30;;;11.10;99.90;;;;;;6084478;23;20383;-91
2023/04/19 04:06:02;;;;;;;8.52;6.65;;;11.10;99.90;;;;;;6132218;23;20017;-92
2023/04/19 04:08:44;;;;;;;7.78;5.40;;;11.10;99.90;;;;;;6132808;23;20327;-92
2023/04/19 04:11:24;;;;;;;9.73;6.10;;;11.10;99.90;;;;;;6133367;23;20076;-92
2023/04/19 04:14:34;;;;;;;;;;;;;;;;;;;;;
2023/04/19 04:17:10;;;;;;;10.25;6.13;;;11.10;99.90;;;;;;6163834;23;20466;-91
2023/04/19 04:19:58;;;;;;;10.27;5.97;;;11.10;99.90;;;;;;6112863;23;20001;-91
2023/04/19 04:22:46;;;;;;;9.73;5.65;;;11.00;99.90;;;;;;6185943;22;20072;-89
2023/04/19 04:25:14;;;;;;;9.68;5.45;;;11.00;99.90;;;;;;6304389;22;20027;-89
2023/04/19 04:27:49;;;;;;;9.18;5.93;;;11.00;99.90;;;;;;6228025;22;20061;-90
2023/04/19 04:30:15;;;;;;;8.43;5.82;;;11.00;99.90;;;;;;6257759;22;20019;-93
2023/04/19 04:32:50;;;;;;;8.68;5.80;;;11.00;99.90;;;;;;6234768;22;20308;-93
2023/04/19 04:35:18;;;;;;;8.48;5.90;;;10.90;99.90;;;;;;6259582;22;20003;-89
2023/04/19 04:37:49;;;;;;;8.50;5.70;;;10.90;99.90;;;;;;6252435;22;20099;-86
2023/04/19 04:40:15;;;;;;;7.82;5.53;;;10.90;99.90;;;;;;6227521;22;20027;-87
2023/04/19 04:42:51;;;;;;;9.90;5.95;;;10.90;99.90;;;;;;6226770;22;20419;-91
2023/04/19 04:45:17;;;;;;;8.95;5.70;;;10.80;99.90;;;;;;6231606;22;20098;-91
2023/04/19 04:47:52;;;;;;;8.05;5.63;;;10.80;99.90;;;;;;6256633;22;19999;-92
2023/04/19 04:50:25;;;;;;;8.38;5.78;;;10.70;99.90;;;;;;6225533;22;20001;-88
2023/04/19 04:52:52;;;;;;;9.15;6.10;;;10.70;99.90;;;;;;6251123;22;20000;-89
2023/04/19 04:55:21;;;;;;;10.10;5.82;;;10.70;99.90;;;;;;6250350;22;20004;-88
2023/04/19 04:57:49;;;;;;;10.90;6.32;;;10.70;99.90;;;;;;6226841;22;20008;-88
2023/04/19 05:00:25;;;;;;;8.65;5.53;;;10.60;99.90;;;;;;6226759;22;20331;-88
2023/04/19 05:02:57;;;;;;;10.05;6.20;;;10.60;99.90;;;;;;6250174;22;20014;-94
2023/04/19 05:05:26;;;;;;;9.95;5.65;;;10.70;99.90;;;;;;6253618;22;20065;-89
2023/04/19 05:07:52;;;;;;;9.43;5.22;;;10.60;99.90;;;;;;6251923;22;20029;-88
2023/04/19 05:10:27;;;;;;;8.30;5.45;;;10.60;99.90;;;;;;6258907;22;20395;-87
2023/04/19 05:12:53;;;;;;;11.18;5.88;;;10.60;99.90;;;;;;6253506;22;20091;-87
2023/04/19 05:15:18;;;;;;;7.88;5.53;;;10.60;99.90;;;;;;6227536;22;20346;-90
2023/04/19 05:17:44;;;;;;;10.95;5.10;;;10.60;99.90;;;;;;6253266;22;20031;-94
2023/04/19 05:20:11;;;;;;;7.40;5.00;;;10.60;99.90;;;;;;6261493;22;20004;-92
2023/04/19 05:22:37;;;;;;;9.02;5.18;;;10.60;99.90;;;;;;6208204;23;20016;-88
2023/04/19 05:25:03;;;;;;;9.95;5.60;;;10.60;99.90;;;;;;6223742;23;20092;-91
2023/04/19 05:27:32;;;;;;;8.07;5.38;;;10.60;99.90;;;;;;6210265;23;20011;-89
2023/04/19 05:30:02;;;;;;;8.00;4.95;;;10.60;99.90;;;;;;6217905;23;20011;-89
2023/04/19 05:32:34;;;;;;;7.57;5.20;;;10.60;99.90;;;;;;6226380;23;20004;-91
2023/04/19 05:35:03;;;;;;;8.23;5.50;;;10.60;99.90;;;;;;6198741;23;20315;-91
2023/04/19 05:37:29;;;;;;;7.93;5.13;;;10.60;99.90;;;;;;6196259;23;20092;-93
2023/04/19 05:40:08;;;;;;;10.85;5.32;;;10.50;99.90;;;;;;6225236;23;19992;-89
2023/04/19 05:42:34;;;;;;;9.93;5.35;;;10.50;99.90;;;;;;6196437;23;20058;-88
2023/04/19 05:45:06;;;;;;;7.28;4.93;;;10.50;99.90;;;;;;6194644;23;20065;-89
2023/04/19 05:47:35;;;;;;;8.48;4.80;;;10.50;99.90;;;;;;6195261;23;20032;-89
2023/04/19 05:50:04;;;;;;;8.20;4.78;;;10.50;99.90;;;;;;6220711;23;20011;-90
2023/04/19 05:52:33;;;;;;;7.40;5.10;;;10.50;99.90;;;;;;6223644;23;20004;-90
2023/04/19 05:55:08;;;;;;;10.23;5.22;;;10.50;99.90;;;;;;6224605;23;20008;-90
2023/04/19 05:57:34;;;;;;;9.68;5.45;;;10.50;99.90;;;;;;6198142;23;20009;-89
2023/04/19 06:00:10;;;;;;;7.65;5.10;;;10.50;99.90;;;;;;6199234;23;20015;-91
2023/04/19 06:02:36;;;;;;;11.13;5.22;;;10.50;99.90;;;;;;6228159;23;20008;-91
2023/04/19 06:05:11;;;;;;;10.50;5.68;;;10.40;99.90;;;;;;6195747;23;20008;-92
2023/04/19 06:07:37;;;;;;;10.07;4.78;;;10.40;99.90;;;;;;6195350;23;20005;-88
2023/04/19 06:10:09;;;;;;;8.20;5.45;;;10.40;99.90;;;;;;6199633;23;20027;-88
2023/04/19 06:12:36;;;;;;;7.15;4.90;;;10.40;99.90;;;;;;6226650;23;20008;-91
2023/04/19 06:15:11;;;;;;;7.03;4.70;;;10.40;99.90;;;;;;6201817;23;20004;-91
2023/04/19 06:17:37;;;;;;;7.03;4.53;;;10.40;99.90;;;;;;6203462;23;20113;-85
2023/04/19 06:20:05;;;;;;;7.85;4.65;;;10.40;99.90;;;;;;6222868;23;20091;-94
2023/04/19 06:22:48;;;;;;;9.27;4.70;;;10.40;99.90;;;;;;6217830;22;20069;-89
2023/04/19 06:25:14;;;;;;;6.68;4.50;;;10.40;99.90;;;;;;6203950;22;20030;-94
2023/04/19 06:27:39;;;;;;;8.65;4.90;;;10.40;99.90;;;;;;6255226;22;20023;-93
2023/04/19 06:30:08;;;;;;;6.65;4.57;;;10.40;99.90;;;;;;6254874;22;20109;-93
2023/04/19 06:32:37;;;;;;;7.97;4.50;;;10.40;99.90;;;;;;6230126;22;20003;-89
2023/04/19 06:35:10;;;;;;;7.97;4.47;;;10.50;99.90;;;;;;6227910;22;20008;-88
2023/04/19 06:37:39;;;;;;;7.72;4.57;;;10.40;99.90;;;;;;6242996;22;20007;-91
2023/04/19 06:40:13;;;;;;;7.38;4.25;;;10.40;99.90;;;;;;6267417;22;20015;-88
2023/04/19 06:42:39;;;;;;;7.68;4.50;;;10.40;99.90;;;;;;6235152;22;19988;-89
2023/04/19 06:45:15;;;;;;;8.27;4.00;;;10.50;99.90;;;;;;6268606;22;20007;-88
2023/04/19 06:47:40;;;;;;;8.32;4.55;;;10.50;99.90;;;;;;6274038;22;20004;-90
2023/04/19 06:50:10;;;;;;;8.35;4.60;;;10.50;99.90;;;;;;6269512;22;20018;-89
2023/04/19 06:52:42;;;;;;;6.85;4.10;;;10.60;99.90;;;;;;6259090;22;20082;-89
2023/04/19 06:55:11;;;;;;;6.30;3.67;;;10.60;99.90;;;;;;6253733;22;20067;-88
2023/04/19 06:57:41;;;;;;;7.40;4.03;;;10.60;99.90;;;;;;6229986;22;20046;-94
2023/04/19 07:00:10;;;;;;;8.77;4.35;;;10.70;99.90;;;;;;6256481;22;20014;-95
2023/04/19 07:02:37;;;;;;;8.07;4.07;;;10.70;99.90;;;;;;6256623;22;20041;-91
2023/04/19 07:05:11;;;;;;;8.65;3.83;;;10.70;99.70;;;;;;6229631;22;20094;-93
2023/04/19 07:07:43;;;;;;;8.38;3.88;;;10.70;99.60;;;;;;6235825;22;20067;-92
2023/04/19 07:10:27;;;;;;;7.10;3.30;;;10.80;99.30;;;;;;6257617;22;20008;-93
2023/04/19 07:12:53;;;;;;;5.45;3.50;;;10.80;99.40;;;;;;6258121;22;20020;-92
2023/04/19 07:15:22;;;;;;;6.13;3.22;;;10.80;99.30;;;;;;6232593;22;20018;-92
2023/04/19 07:17:57;;;;;;;6.68;3.67;;;10.90;98.70;;;;;;6262046;22;20018;-93
2023/04/19 07:20:30;;;;;;;6.13;3.20;;;10.90;98.00;;;;;;6260817;22;20019;-94
2023/04/19 07:22:59;;;;;;;7.50;3.67;;;10.90;97.90;;;;;;6223349;23;20044;-87
2023/04/19 07:25:26;;;;;;;6.68;3.40;;;11.00;97.80;;;;;;6212047;23;20000;-89
2023/04/19 07:27:53;;;;;;;6.88;3.28;;;11.00;97.50;;;;;;6219395;23;20017;-89
2023/04/19 07:30:19;;;;;;;6.45;3.20;;;11.10;96.90;;;;;;6200084;23;20012;-90
2023/04/19 07:32:45;;;;;;;6.03;3.42;;;11.10;96.80;;;;;;6225990;23;20007;-91
2023/04/19 07:35:11;;;;;;;5.05;2.90;;;11.10;96.50;;;;;;6202627;23;20075;-90
2023/04/19 07:37:37;;;;;;;5.57;2.90;;;11.20;96.30;;;;;;6199374;23;20016;-91
2023/04/19 07:40:04;;;;;;;5.57;2.80;;;11.20;96.10;;;;;;6230559;23;20446;-89
2023/04/19 07:42:30;;;;;;;6.90;2.75;;;11.30;95.80;;;;;;6223085;23;20019;-89
2023/04/19 07:44:58;;;;;;;5.45;2.60;;;11.30;95.70;;;;;;6206263;23;20067;-86
2023/04/19 07:47:24;;;;;;;8.45;2.95;;;11.40;95.70;;;;;;6239124;23;20000;-90
2023/04/19 07:49:54;;;;;;;6.03;3.05;;;11.40;95.20;;;;;;6217585;23;20060;-91
2023/04/19 07:52:20;;;;;;;5.10;3.08;;;11.50;94.90;;;;;;6228190;23;20039;-89
2023/04/19 07:54:46;;;;;;;7.43;3.30;;;11.50;94.80;;;;;;6196440;23;20012;-90
2023/04/19 07:57:12;;;;;;;5.05;3.10;;;11.60;95.00;;;;;;6223404;23;20127;-94
2023/04/19 07:59:37;;;;;;;5.55;2.95;;;11.60;94.80;;;;;;6225803;23;20004;-93
2023/04/19 08:02:03;;;;;;;8.75;3.05;;;11.70;94.70;;;;;;6201218;23;20012;-92
2023/04/19 08:04:29;;;;;;;4.90;2.40;;;11.80;94.50;;;;;;6229292;23;20108;-94
2023/04/19 08:06:55;;;;;;;6.65;3.00;;;11.80;94.20;;;;;;6199048;23;20004;-89
2023/04/19 08:09:21;;;;;;;5.28;2.40;;;11.90;93.90;;;;;;6224668;23;20004;-86
2023/04/19 08:11:46;;;;;;;4.47;2.47;;;11.90;93.50;;;;;;6196066;23;20015;-88
2023/04/19 08:14:12;;;;;;;3.67;2.30;;;12.00;93.80;;;;;;6221288;23;20012;-87
2023/04/19 08:16:38;;;;;;;4.88;2.40;;;12.10;93.80;;;;;;6196283;23;20012;-88
2023/04/19 08:19:03;;;;;;;5.82;2.60;;;12.10;93.30;;;;;;6195822;23;20004;-88
2023/04/19 08:21:30;;;;;;;9.65;2.47;;;12.20;93.10;;;;;;6205544;23;20012;-92
2023/04/19 08:23:56;;;;;;;6.80;2.78;;;12.30;92.90;;;;;;6208252;23;20012;-95
2023/04/19 08:26:21;;;;;;;4.80;2.53;;;12.30;92.80;;;;;;6207444;23;20026;-93
2023/04/19 08:28:49;;;;;;;8.68;2.72;;;12.40;92.30;;;;;;6200358;23;20065;-88
2023/04/19 08:31:15;;;;;;;3.35;2.22;;;12.50;92.20;;;;;;6196198;23;20045;-89
2023/04/19 08:33:41;;;;;;;4.95;2.05;;;12.60;92.30;;;;;;6196530;23;20050;-88
2023/04/19 08:36:07;;;;;;;5.47;2.00;;;12.60;92.20;;;;;;6196812;23;20043;-92
2023/04/19 08:38:33;;;;;;;4.35;2.10;;;12.70;92.10;;;;;;6221334;23;20004;-87
2023/04/19 08:41:00;;;;;;;3.28;1.67;;;12.80;92.20;;;;;;6221340;23;20008;-87
2023/04/19 08:43:32;;;;;;;4.70;1.90;;;12.90;91.90;;;;;;6195939;23;20004;-87
2023/04/19 08:45:58;;;;;;;4.82;1.75;;;13.00;91.90;;;;;;6234146;23;20004;-87
2023/04/19 08:48:26;;;;;;;4.32;2.00;;;13.10;92.00;;;;;;6227905;23;20095;-87
2023/04/19 08:50:55;;;;;;;4.15;1.95;;;13.10;91.70;;;;;;6252974;23;20004;-87
2023/04/19 08:53:21;;;;;;;5.50;1.85;;;13.20;91.60;;;;;;6228043;23;20120;-86
2023/04/19 08:55:48;;;;;;;3.75;1.60;;;13.30;91.20;;;;;;6224290;23;20039;-93
2023/04/19 08:58:14;;;;;;;3.13;1.77;;;13.40;90.00;;;;;;6223440;23;20039;-92
2023/04/19 09:00:42;;;;;;;2.80;1.67;;;13.40;87.70;;;;;;6195912;23;20004;-88
2023/04/19 09:03:08;;;;;;;3.42;1.65;;;13.40;85.30;;;;;;6197863;23;20005;-88
2023/04/19 09:05:53;;;;;;;4.72;1.88;;;13.50;85.30;;;;;;6213200;23;20018;-91
2023/04/19 09:08:29;;;;;;;5.80;1.80;;;13.50;79.30;;;;;;6235635;23;20008;-91
2023/04/19 09:11:00;;;;;;;2.50;1.60;;;13.50;79.50;;;;;;6237846;23;20087;-91
2023/04/19 09:13:27;;;;;;;3.03;1.63;;;13.50;79.50;;;;;;6223889;23;19996;-93
2023/04/19 09:15:55;;;;;;;7.22;1.55;;;13.50;80.60;;;;;;6196575;23;20015;-93
2023/04/19 09:18:26;;;;;;;2.63;1.50;;;13.60;81.10;;;;;;6221287;23;20003;-92
2023/04/19 09:20:59;;;;;;;5.90;1.35;;;13.60;79.80;;;;;;6195818;23;20012;-88
2023/04/19 09:23:27;;;;;;;2.13;1.30;;;13.60;79.90;;;;;;6210510;23;20351;-88
2023/04/19 09:26:01;;;;;;;3.03;1.40;;;13.70;79.90;;;;;;6196457;23;20023;-94
2023/04/19 09:28:27;;;;;;;2.78;1.75;;;13.80;79.40;;;;;;6220426;23;20000;-92
2023/04/19 09:30:55;;;;;;;2.28;1.38;;;13.80;80.40;;;;;;6195294;23;20344;-93
2023/04/19 09:33:32;;;;;;;3.10;1.98;;;13.90;80.30;;;;;;6196622;23;20008;-91
2023/04/19 09:35:59;;;;;;;4.53;2.33;;;14.00;82.30;;;;;;6221563;23;20008;-90
2023/04/19 09:38:25;;;;;;;2.70;1.50;;;14.00;80.40;;;;;;6227685;23;20004;-92
2023/04/19 09:40:51;;;;;;;6.13;1.60;;;14.10;80.60;;;;;;6198479;23;20309;-91
2023/04/19 09:43:24;;;;;;;3.50;1.67;;;14.10;80.80;;;;;;6220963;23;20009;-92
2023/04/19 09:45:50;;;;;;;3.10;1.80;;;14.20;80.30;;;;;;6221381;23;20000;-94
2023/04/19 09:48:16;;;;;;;4.25;1.65;;;14.20;79.70;;;;;;6246298;23;20050;-91
2023/04/19 09:50:54;;;;;;;3.58;1.50;;;14.30;80.30;;;;;;6220380;23;20004;-93
2023/04/19 09:53:21;;;;;;;2.67;1.33;;;14.40;79.70;;;;;;6220623;23;20011;-88
2023/04/19 09:55:47;;;;;;;2.88;1.63;;;14.50;79.30;;;;;;6220362;23;20385;-88
2023/04/19 09:58:17;;;;;;;2.10;1.50;;;14.50;77.80;;;;;;6220243;23;20020;-93
2023/04/19 10:00:46;;;;;;;4.80;1.73;;;14.60;77.90;;;;;;6223047;23;20064;-92
2023/04/19 10:03:16;;;;;;;9.30;2.22;;;14.60;76.90;;;;;;6223431;23;20005;-93
2023/04/19 10:05:43;;;;;;;4.45;1.67;;;14.60;76.20;;;;;;6223235;23;20009;-89
2023/04/19 10:08:12;;;;;;;1.65;1.20;;;14.70;75.60;;;;;;6223475;23;20404;-93
2023/04/19 10:10:44;;;;;;;3.75;1.88;;;14.70;74.70;;;;;;6222483;23;19997;-88
2023/04/19 10:13:22;;;;;;;4.22;1.75;;;14.80;73.90;;;;;;6221682;23;20082;-88
2023/04/19 10:15:47;;;;;;;3.50;1.60;;;14.80;74.00;;;;;;6221831;23;20055;-87
2023/04/19 10:18:14;;;;;;;4.80;1.60;;;14.80;72.70;;;;;;6221549;23;20008;-88
2023/04/19 10:21:00;;;;;;;3.30;1.70;;;14.90;72.90;;;;;;6221849;23;20031;-88
2023/04/19 10:23:27;;;;;;;3.10;1.63;;;14.90;73.30;;;;;;6222815;23;20015;-87
2023/04/19 10:25:58;;;;;;;3.08;1.48;;;15.00;72.50;;;;;;6194423;23;20086;-91
2023/04/19 10:28:26;;;;;;;2.70;1.70;;;15.00;71.90;;;;;;6221767;23;20012;-92
2023/04/19 10:31:00;;;;;;;2.75;1.70;;;15.10;72.40;;;;;;6224268;23;20046;-92
2023/04/19 10:33:28;;;;;;;2.22;1.40;;;15.20;72.00;;;;;;6199788;23;20015;-93
2023/04/19 10:35:58;;;;;;;2.83;1.42;;;15.20;72.60;;;;;;6224428;23;20423;-92
2023/04/19 10:38:42;;;;;;;4.28;1.65;;;15.30;72.30;;;;;;6224061;23;20012;-90
2023/04/19 10:41:10;;;;;;;3.00;1.70;;;15.40;70.80;;;;;;6223192;23;20091;-89
2023/04/19 10:43:54;;;;;;;5.05;1.75;;;15.40;69.70;;;;;;6199993;23;20012;-92
2023/04/19 10:46:20;;;;;;;2.75;1.58;;;15.50;69.50;;;;;;6248117;23;20004;-88
2023/04/19 10:48:57;;;;;;;4.38;1.65;;;15.60;69.50;;;;;;6247608;23;20004;-87
2023/04/19 10:51:26;;;;;;;3.13;1.55;;;15.60;69.20;;;;;;6222889;23;20011;-87
2023/04/19 10:53:59;;;;;;;3.58;1.70;;;15.70;68.40;;;;;;6222754;23;20087;-87
2023/04/19 10:56:38;;;;;;;3.95;1.63;;;15.70;68.90;;;;;;6223035;23;20003;-90
2023/04/19 10:59:09;;;;;;;3.53;1.73;;;15.70;68.10;;;;;;6249251;23;20001;-92
2023/04/19 11:01:43;;;;;;;4.55;1.70;;;15.80;67.70;;;;;;6249681;23;20110;-91
2023/04/19 11:04:12;;;;;;;5.18;2.13;;;15.80;66.60;;;;;;6224327;23;19996;-92
2023/04/19 11:07:00;;;;;;;5.30;1.42;;;15.90;66.40;;;;;;6225015;23;20330;-92
2023/04/19 11:09:43;;;;;;;5.82;2.28;;;15.90;66.00;;;;;;6222783;23;20000;-89
2023/04/19 11:12:14;;;;;;;4.68;1.88;;;16.00;65.20;;;;;;6222269;23;20087;-88
2023/04/19 11:14:41;;;;;;;5.20;1.90;;;16.00;65.40;;;;;;6222008;23;20038;-89
2023/04/19 11:17:26;;;;;;;3.75;1.60;;;16.10;64.80;;;;;;6253157;23;20496;-87
2023/04/19 11:19:59;;;;;;;6.82;1.95;;;16.10;63.90;;;;;;6222804;23;20370;-94
2023/04/19 11:22:43;;;;;;;4.07;2.00;;;16.20;63.20;;;;;;6248697;22;20103;-93
2023/04/19 11:25:09;;;;;;;3.03;1.85;;;16.20;63.00;;;;;;6225113;23;20008;-91
2023/04/19 11:27:36;;;;;;;4.65;1.80;;;16.30;62.90;;;;;;6229837;23;20008;-93
2023/04/19 11:30:10;;;;;;;3.97;1.77;;;16.30;59.50;;;;;;6223441;23;20007;-91
2023/04/19 11:32:36;;;;;;;4.00;1.90;;;16.40;59.50;;;;;;6202985;23;20008;-88
2023/04/19 11:35:07;;;;;;;5.88;1.92;;;16.50;59.40;;;;;;6229166;23;20031;-88
2023/04/19 11:37:34;;;;;;;3.00;1.85;;;16.50;58.40;;;;;;6225555;23;20004;-92
2023/04/19 11:40:00;;;;;;;9.68;2.00;;;16.50;57.30;;;;;;6203690;23;20039;-90
2023/04/19 11:42:27;;;;;;;3.60;1.60;;;16.60;57.40;;;;;;6228530;23;20036;-91
2023/04/19 11:44:56;;;;;;;5.90;1.83;;;16.70;57.50;;;;;;6197148;23;20012;-88
2023/04/19 11:47:32;;;;;;;3.13;1.60;;;16.70;57.00;;;;;;6223620;23;20428;-89
2023/04/19 11:50:34;;;;;;;4.20;1.67;;;16.80;56.70;;;;;;6197774;23;20015;-88
2023/04/19 11:53:16;;;;;;;5.97;2.05;;;16.90;56.10;;;;;;6229942;23;20000;-89
2023/04/19 11:55:43;;;;;;;4.35;1.90;;;16.90;56.60;;;;;;6243187;23;20005;-88
2023/04/19 11:58:22;;;;;;;5.03;1.65;;;17.00;56.40;;;;;;6218824;23;20015;-90
2023/04/19 12:00:48;;;;;;;6.03;2.10;;;17.10;56.50;;;;;;6244877;23;20012;-89
2023/04/19 12:03:14;;;;;;;5.63;1.85;;;17.20;56.10;;;;;;6218353;23;20064;-90
2023/04/19 12:05:50;;;;;;;2.88;1.90;;;17.20;55.50;;;;;;6240648;23;20103;-92
2023/04/19 12:08:16;;;;;;;5.40;1.90;;;17.20;55.30;;;;;;6202247;23;20004;-91
2023/04/19 12:10:55;;;;;;;5.95;1.98;;;17.30;54.20;;;;;;6201990;23;20036;-90
2023/04/19 12:13:21;;;;;;;4.63;1.95;;;17.40;54.70;;;;;;6230434;23;19996;-93
2023/04/19 12:15:47;;;;;;;4.10;1.90;;;17.40;54.50;;;;;;6185086;23;20011;-91
2023/04/19 12:18:13;;;;;;;2.95;1.80;;;17.50;54.40;;;;;;6206995;23;20091;-91
2023/04/19 12:20:48;;;;;;;3.60;1.92;;;17.60;55.20;;;;;;6198771;23;20008;-89
2023/04/19 12:23:15;;;;;;;3.53;1.77;;;17.60;53.00;;;;;;6234573;23;20019;-89
2023/04/19 12:25:42;;;;;;;6.35;2.15;;;17.70;53.40;;;;;;6217481;23;20395;-89
2023/04/19 12:28:08;;;;;;;5.00;1.88;;;17.70;52.70;;;;;;6226583;22;20012;-92
2023/04/19 12:30:38;;;;;;;2.78;1.73;;;17.70;52.50;;;;;;6222624;23;20087;-89
2023/04/19 12:33:05;;;;;;;4.57;1.80;;;17.80;52.10;;;;;;6220305;22;20005;-92
2023/04/19 12:35:32;;;;;;;3.88;1.95;;;17.80;52.20;;;;;;6251094;23;20000;-92
2023/04/19 12:38:02;;;;;;;3.88;2.33;;;17.80;52.50;;;;;;6250321;23;20094;-91
2023/04/19 12:40:29;;;;;;;5.43;1.92;;;17.90;52.00;;;;;;6249494;23;20043;-91
2023/04/19 12:42:55;;;;;;;6.93;2.83;;;17.90;52.20;;;;;;6240106;23;20046;-88
2023/04/19 12:45:20;;;;;;;9.32;2.50;;;17.90;51.60;;;;;;6224861;22;20434;-90
2023/04/19 12:47:47;;;;;;;3.55;2.17;;;18.00;51.40;;;;;;6225948;22;20066;-90
2023/04/19 12:50:14;;;;;;;3.55;2.28;;;18.00;52.60;;;;;;6246132;23;20004;-88
2023/04/19 12:52:41;;;;;;;3.72;2.17;;;18.10;52.20;;;;;;6237057;23;20004;-88
2023/04/19 12:55:07;;;;;;;3.72;2.35;;;18.10;51.90;;;;;;6248070;22;20030;-88
2023/04/19 12:57:33;;;;;;;6.07;2.40;;;18.10;51.60;;;;;;6251650;22;20354;-87
2023/04/19 12:59:59;;;;;;;6.40;2.53;;;18.20;50.40;;;;;;6220781;22;20011;-87
2023/04/19 13:02:25;;;;;;;5.95;2.47;;;18.20;50.70;;;;;;6221436;23;20040;-93
2023/04/19 13:04:50;;;;;;;5.88;2.35;;;18.20;51.20;;;;;;6215536;23;20370;-90
2023/04/19 13:07:16;;;;;;;3.97;2.40;;;18.20;50.70;;;;;;6225453;22;20015;-88
2023/04/19 13:09:44;;;;;;;5.55;2.60;;;18.30;50.90;;;;;;6228242;22;20003;-93
2023/04/19 13:12:11;;;;;;;4.80;2.53;;;18.30;50.70;;;;;;6224483;23;20010;-93
2023/04/19 13:14:38;;;;;;;5.30;2.65;;;18.40;50.30;;;;;;6206723;23;20049;-93
2023/04/19 13:17:04;;;;;;;4.82;2.50;;;18.40;50.70;;;;;;6219636;22;20095;-92
2023/04/19 13:19:30;;;;;;;7.35;2.42;;;18.40;51.30;;;;;;6247559;23;20014;-92
2023/04/19 13:21:56;;;;;;;5.45;2.47;;;18.50;50.20;;;;;;6191523;23;20490;-91
2023/04/19 13:24:21;;;;;;;6.03;2.70;;;18.50;50.40;;;;;;6221404;23;20066;-93
2023/04/19 13:26:47;;;;;;;5.95;2.97;;;18.50;50.20;;;;;;6216043;23;20134;-91
2023/04/19 13:29:13;;;;;;;3.38;2.10;;;18.50;50.60;;;;;;6228193;22;20110;-93
2023/04/19 13:31:42;;;;;;;3.78;2.30;;;18.50;50.30;;;;;;6233926;22;20004;-92
2023/04/19 13:34:08;;;;;;;6.90;2.38;;;18.60;49.90;;;;;;6248258;23;20030;-91
2023/04/19 13:36:34;;;;;;;5.78;2.28;;;18.60;49.40;;;;;;6197283;23;20000;-87
2023/04/19 13:39:00;;;;;;;3.75;2.40;;;18.60;48.90;;;;;;6216084;22;20062;-89
2023/04/19 13:41:25;;;;;;;6.93;2.25;;;18.60;50.00;;;;;;6246033;23;20071;-88
2023/04/19 13:43:51;;;;;;;4.53;2.47;;;18.70;50.00;;;;;;6238863;23;20446;-88
2023/04/19 13:46:17;;;;;;;6.65;2.53;;;18.70;49.50;;;;;;6226736;22;20030;-89